sensor_id;sensor_type;location;lat;lon;timestamp;P1;durP1;ratioP1;P2;durP2;ratioP2
65377;SDS011;51982;51.042;13.806;2022-07-29T00:00:50;8.38;;;1.67;;
65377;SDS011;51982;51.042;13.806;2022-07-29T00:03:16;8.73;;;1.70;;
65377;SDS011;51982;51.042;13.806;2022-07-29T00:05:41;7.07;;;2.03;;
65377;SDS011;51982;51.042;13.806;2022-07-29T00:08:07;4.70;;;1.33;;
65377;SDS011;51982;51.042;13.806;2022-07-29T00:10:34;4.35;;;1.63;;
65377;SDS011;51982;51.042;13.806;2022-07-29T00:12:59;11.02;;;1.58;;
65377;SDS011;51982;51.042;13.806;2022-07-29T00:15:25;7.07;;;1.70;;
65377;SDS011;51982;51.042;13.806;2022-07-29T00:17:50;11.60;;;1.73;;
65377;SDS011;51982;51.042;13.806;2022-07-29T00:20:15;8.20;;;1.92;;
65377;SDS011;51982;51.042;13.806;2022-07-29T00:22:41;4.60;;;1.70;;
65377;SDS011;51982;51.042;13.806;2022-07-29T00:25:07;5.67;;;1.80;;
65377;SDS011;51982;51.042;13.806;2022-07-29T00:27:33;9.88;;;2.10;;
65377;SDS011;51982;51.042;13.806;2022-07-29T00:29:59;5.25;;;1.90;;
65377;SDS011;51982;51.042;13.806;2022-07-29T00:32:24;4.20;;;1.70;;
65377;SDS011;51982;51.042;13.806;2022-07-29T00:34:50;9.32;;;1.98;;
65377;SDS011;51982;51.042;13.806;2022-07-29T00:37:33;2.95;;;1.60;;
65377;SDS011;51982;51.042;13.806;2022-07-29T00:39:59;9.03;;;1.87;;
65377;SDS011;51982;51.042;13.806;2022-07-29T00:42:24;5.20;;;1.97;;
65377;SDS011;51982;51.042;13.806;2022-07-29T00:44:49;5.20;;;2.20;;
65377;SDS011;51982;51.042;13.806;2022-07-29T00:47:14;5.73;;;2.20;;
65377;SDS011;51982;51.042;13.806;2022-07-29T00:49:40;18.45;;;2.65;;
65377;SDS011;51982;51.042;13.806;2022-07-29T00:52:07;8.90;;;2.55;;
65377;SDS011;51982;51.042;13.806;2022-07-29T00:54:34;6.20;;;2.55;;
65377;SDS011;51982;51.042;13.806;2022-07-29T00:57:01;8.45;;;2.30;;
65377;SDS011;51982;51.042;13.806;2022-07-29T00:59:26;6.72;;;2.92;;
65377;SDS011;51982;51.042;13.806;2022-07-29T01:01:52;10.05;;;2.42;;
65377;SDS011;51982;51.042;13.806;2022-07-29T01:04:18;11.05;;;2.80;;
65377;SDS011;51982;51.042;13.806;2022-07-29T01:06:44;8.55;;;2.92;;
65377;SDS011;51982;51.042;13.806;2022-07-29T01:09:10;9.07;;;3.00;;
65377;SDS011;51982;51.042;13.806;2022-07-29T01:11:36;7.68;;;2.85;;
65377;SDS011;51982;51.042;13.806;2022-07-29T01:14:02;9.35;;;3.20;;
65377;SDS011;51982;51.042;13.806;2022-07-29T01:16:30;9.43;;;3.25;;
65377;SDS011;51982;51.042;13.806;2022-07-29T01:19:00;7.50;;;3.72;;
65377;SDS011;51982;51.042;13.806;2022-07-29T01:21:44;11.75;;;3.80;;
65377;SDS011;51982;51.042;13.806;2022-07-29T01:26:59;10.23;;;4.57;;
65377;SDS011;51982;51.042;13.806;2022-07-29T01:29:52;11.90;;;4.88;;
65377;SDS011;51982;51.042;13.806;2022-07-29T01:32:21;13.60;;;5.30;;
65377;SDS011;51982;51.042;13.806;2022-07-29T01:35:02;14.77;;;6.38;;
65377;SDS011;51982;51.042;13.806;2022-07-29T01:37:49;15.38;;;7.15;;
65377;SDS011;51982;51.042;13.806;2022-07-29T01:40:28;20.73;;;9.57;;
65377;SDS011;51982;51.042;13.806;2022-07-29T01:43:00;20.70;;;11.13;;
65377;SDS011;51982;51.042;13.806;2022-07-29T01:45:36;24.30;;;11.82;;
65377;SDS011;51982;51.042;13.806;2022-07-29T01:48:06;21.45;;;11.23;;
65377;SDS011;51982;51.042;13.806;2022-07-29T01:50:56;23.80;;;11.52;;
65377;SDS011;51982;51.042;13.806;2022-07-29T01:53:29;23.27;;;11.90;;
65377;SDS011;51982;51.042;13.806;2022-07-29T01:55:59;30.40;;;11.82;;
65377;SDS011;51982;51.042;13.806;2022-07-29T01:58:26;19.90;;;11.55;;
65377;SDS011;51982;51.042;13.806;2022-07-29T02:00:55;26.52;;;12.45;;
65377;SDS011;51982;51.042;13.806;2022-07-29T02:03:22;26.98;;;12.23;;
65377;SDS011;51982;51.042;13.806;2022-07-29T02:05:48;26.88;;;12.18;;
65377;SDS011;51982;51.042;13.806;2022-07-29T02:08:15;20.95;;;10.43;;
65377;SDS011;51982;51.042;13.806;2022-07-29T02:10:43;25.98;;;11.27;;
65377;SDS011;51982;51.042;13.806;2022-07-29T02:13:10;20.00;;;10.18;;
65377;SDS011;51982;51.042;13.806;2022-07-29T02:15:37;23.92;;;10.23;;
65377;SDS011;51982;51.042;13.806;2022-07-29T02:18:05;22.55;;;10.07;;
65377;SDS011;51982;51.042;13.806;2022-07-29T02:20:50;23.05;;;10.65;;
65377;SDS011;51982;51.042;13.806;2022-07-29T02:23:19;21.27;;;11.30;;
65377;SDS011;51982;51.042;13.806;2022-07-29T02:25:48;23.13;;;11.43;;
65377;SDS011;51982;51.042;13.806;2022-07-29T02:28:18;27.52;;;11.95;;
65377;SDS011;51982;51.042;13.806;2022-07-29T02:30:45;23.90;;;12.73;;
65377;SDS011;51982;51.042;13.806;2022-07-29T02:33:13;22.30;;;11.73;;
65377;SDS011;51982;51.042;13.806;2022-07-29T02:35:40;22.88;;;12.23;;
65377;SDS011;51982;51.042;13.806;2022-07-29T02:38:08;22.17;;;11.45;;
65377;SDS011;51982;51.042;13.806;2022-07-29T02:40:55;24.10;;;11.80;;
65377;SDS011;51982;51.042;13.806;2022-07-29T02:43:23;31.70;;;12.68;;
65377;SDS011;51982;51.042;13.806;2022-07-29T02:45:51;19.45;;;10.93;;
65377;SDS011;51982;51.042;13.806;2022-07-29T02:48:20;22.50;;;10.45;;
65377;SDS011;51982;51.042;13.806;2022-07-29T02:50:55;22.10;;;10.65;;
65377;SDS011;51982;51.042;13.806;2022-07-29T02:53:25;20.25;;;10.15;;
65377;SDS011;51982;51.042;13.806;2022-07-29T02:55:55;15.57;;;8.48;;
65377;SDS011;51982;51.042;13.806;2022-07-29T03:00:57;18.53;;;9.03;;
65377;SDS011;51982;51.042;13.806;2022-07-29T03:03:27;18.13;;;9.80;;
65377;SDS011;51982;51.042;13.806;2022-07-29T03:05:55;24.40;;;12.30;;
65377;SDS011;51982;51.042;13.806;2022-07-29T03:08:22;26.65;;;13.88;;
65377;SDS011;51982;51.042;13.806;2022-07-29T03:10:47;23.77;;;12.85;;
65377;SDS011;51982;51.042;13.806;2022-07-29T03:13:13;28.35;;;13.88;;
65377;SDS011;51982;51.042;13.806;2022-07-29T03:15:39;24.95;;;14.55;;
65377;SDS011;51982;51.042;13.806;2022-07-29T03:18:07;30.38;;;14.95;;
65377;SDS011;51982;51.042;13.806;2022-07-29T03:20:33;32.15;;;15.70;;
65377;SDS011;51982;51.042;13.806;2022-07-29T03:22:58;34.17;;;15.55;;
65377;SDS011;51982;51.042;13.806;2022-07-29T03:25:23;26.98;;;15.50;;
65377;SDS011;51982;51.042;13.806;2022-07-29T03:27:48;34.10;;;14.43;;
65377;SDS011;51982;51.042;13.806;2022-07-29T03:30:14;22.80;;;12.75;;
65377;SDS011;51982;51.042;13.806;2022-07-29T03:32:40;24.20;;;12.40;;
65377;SDS011;51982;51.042;13.806;2022-07-29T03:35:06;27.63;;;12.52;;
65377;SDS011;51982;51.042;13.806;2022-07-29T03:37:32;22.67;;;11.35;;
65377;SDS011;51982;51.042;13.806;2022-07-29T03:39:58;25.45;;;11.98;;
65377;SDS011;51982;51.042;13.806;2022-07-29T03:42:27;23.77;;;10.40;;
65377;SDS011;51982;51.042;13.806;2022-07-29T03:44:57;22.40;;;10.63;;
65377;SDS011;51982;51.042;13.806;2022-07-29T03:47:25;23.08;;;10.27;;
65377;SDS011;51982;51.042;13.806;2022-07-29T03:49:54;18.50;;;10.48;;
65377;SDS011;51982;51.042;13.806;2022-07-29T03:52:24;19.02;;;10.82;;
65377;SDS011;51982;51.042;13.806;2022-07-29T03:54:50;22.23;;;11.20;;
65377;SDS011;51982;51.042;13.806;2022-07-29T03:57:18;23.98;;;11.63;;
65377;SDS011;51982;51.042;13.806;2022-07-29T03:59:47;25.20;;;11.07;;
65377;SDS011;51982;51.042;13.806;2022-07-29T04:02:13;25.52;;;10.90;;
65377;SDS011;51982;51.042;13.806;2022-07-29T04:04:38;21.60;;;11.60;;
65377;SDS011;51982;51.042;13.806;2022-07-29T04:07:04;18.83;;;10.52;;
65377;SDS011;51982;51.042;13.806;2022-07-29T04:09:29;20.70;;;9.77;;
65377;SDS011;51982;51.042;13.806;2022-07-29T04:11:55;22.42;;;10.15;;
65377;SDS011;51982;51.042;13.806;2022-07-29T04:14:20;24.08;;;10.30;;
65377;SDS011;51982;51.042;13.806;2022-07-29T04:16:45;23.02;;;10.88;;
65377;SDS011;51982;51.042;13.806;2022-07-29T04:19:11;21.77;;;10.85;;
65377;SDS011;51982;51.042;13.806;2022-07-29T04:21:37;22.13;;;10.70;;
65377;SDS011;51982;51.042;13.806;2022-07-29T04:24:03;23.95;;;11.10;;
65377;SDS011;51982;51.042;13.806;2022-07-29T04:26:28;21.92;;;11.05;;
65377;SDS011;51982;51.042;13.806;2022-07-29T04:28:54;25.87;;;10.70;;
65377;SDS011;51982;51.042;13.806;2022-07-29T04:31:19;23.00;;;12.13;;
65377;SDS011;51982;51.042;13.806;2022-07-29T04:33:44;24.90;;;11.35;;
65377;SDS011;51982;51.042;13.806;2022-07-29T04:36:09;24.73;;;11.33;;
65377;SDS011;51982;51.042;13.806;2022-07-29T04:38:36;24.55;;;11.23;;
65377;SDS011;51982;51.042;13.806;2022-07-29T04:41:01;18.40;;;10.60;;
65377;SDS011;51982;51.042;13.806;2022-07-29T04:43:26;21.02;;;11.45;;
65377;SDS011;51982;51.042;13.806;2022-07-29T04:45:52;25.77;;;11.97;;
65377;SDS011;51982;51.042;13.806;2022-07-29T04:48:17;20.13;;;10.70;;
65377;SDS011;51982;51.042;13.806;2022-07-29T04:50:42;21.50;;;10.23;;
65377;SDS011;51982;51.042;13.806;2022-07-29T04:53:09;18.92;;;10.35;;
65377;SDS011;51982;51.042;13.806;2022-07-29T04:55:34;19.93;;;9.83;;
65377;SDS011;51982;51.042;13.806;2022-07-29T04:57:59;18.35;;;9.48;;
65377;SDS011;51982;51.042;13.806;2022-07-29T05:00:25;20.48;;;9.60;;
65377;SDS011;51982;51.042;13.806;2022-07-29T05:02:50;21.58;;;9.43;;
65377;SDS011;51982;51.042;13.806;2022-07-29T05:05:15;22.23;;;10.17;;
65377;SDS011;51982;51.042;13.806;2022-07-29T05:07:41;17.15;;;9.40;;
65377;SDS011;51982;51.042;13.806;2022-07-29T05:10:07;27.77;;;10.27;;
65377;SDS011;51982;51.042;13.806;2022-07-29T05:12:33;20.48;;;9.02;;
65377;SDS011;51982;51.042;13.806;2022-07-29T05:14:58;26.85;;;9.68;;
65377;SDS011;51982;51.042;13.806;2022-07-29T05:17:24;22.55;;;9.45;;
65377;SDS011;51982;51.042;13.806;2022-07-29T05:19:49;24.33;;;10.50;;
65377;SDS011;51982;51.042;13.806;2022-07-29T05:22:16;21.20;;;10.50;;
65377;SDS011;51982;51.042;13.806;2022-07-29T05:24:42;24.15;;;10.75;;
65377;SDS011;51982;51.042;13.806;2022-07-29T05:27:07;22.90;;;11.80;;
65377;SDS011;51982;51.042;13.806;2022-07-29T05:29:33;29.33;;;14.63;;
65377;SDS011;51982;51.042;13.806;2022-07-29T05:31:58;28.87;;;14.20;;
65377;SDS011;51982;51.042;13.806;2022-07-29T05:34:23;35.28;;;16.88;;
65377;SDS011;51982;51.042;13.806;2022-07-29T05:36:49;33.30;;;16.75;;
65377;SDS011;51982;51.042;13.806;2022-07-29T05:39:15;36.13;;;17.27;;
65377;SDS011;51982;51.042;13.806;2022-07-29T05:41:41;33.92;;;17.17;;
65377;SDS011;51982;51.042;13.806;2022-07-29T05:44:08;35.07;;;18.63;;
65377;SDS011;51982;51.042;13.806;2022-07-29T05:46:34;37.03;;;17.98;;
65377;SDS011;51982;51.042;13.806;2022-07-29T05:48:59;49.97;;;19.27;;
65377;SDS011;51982;51.042;13.806;2022-07-29T05:51:24;50.17;;;19.50;;
65377;SDS011;51982;51.042;13.806;2022-07-29T05:53:49;33.37;;;18.27;;
65377;SDS011;51982;51.042;13.806;2022-07-29T05:56:15;38.63;;;18.93;;
65377;SDS011;51982;51.042;13.806;2022-07-29T05:58:40;32.72;;;18.38;;
65377;SDS011;51982;51.042;13.806;2022-07-29T06:01:06;37.83;;;19.27;;
65377;SDS011;51982;51.042;13.806;2022-07-29T06:03:31;32.37;;;17.57;;
65377;SDS011;51982;51.042;13.806;2022-07-29T06:05:56;37.33;;;15.87;;
65377;SDS011;51982;51.042;13.806;2022-07-29T06:08:21;37.83;;;14.93;;
65377;SDS011;51982;51.042;13.806;2022-07-29T06:10:47;32.75;;;15.48;;
65377;SDS011;51982;51.042;13.806;2022-07-29T06:13:12;30.17;;;15.25;;
65377;SDS011;51982;51.042;13.806;2022-07-29T06:15:38;33.78;;;15.32;;
65377;SDS011;51982;51.042;13.806;2022-07-29T06:18:03;32.13;;;15.00;;
65377;SDS011;51982;51.042;13.806;2022-07-29T06:20:28;29.63;;;15.60;;
65377;SDS011;51982;51.042;13.806;2022-07-29T06:22:54;34.63;;;14.93;;
65377;SDS011;51982;51.042;13.806;2022-07-29T06:25:20;26.83;;;14.98;;
65377;SDS011;51982;51.042;13.806;2022-07-29T06:27:46;26.65;;;14.90;;
65377;SDS011;51982;51.042;13.806;2022-07-29T06:30:11;32.27;;;14.80;;
65377;SDS011;51982;51.042;13.806;2022-07-29T06:32:37;33.15;;;14.80;;
65377;SDS011;51982;51.042;13.806;2022-07-29T06:35:02;33.87;;;14.73;;
65377;SDS011;51982;51.042;13.806;2022-07-29T06:37:28;29.67;;;13.63;;
65377;SDS011;51982;51.042;13.806;2022-07-29T06:39:53;30.23;;;14.38;;
65377;SDS011;51982;51.042;13.806;2022-07-29T06:42:41;31.98;;;14.38;;
65377;SDS011;51982;51.042;13.806;2022-07-29T06:45:07;32.90;;;15.13;;
65377;SDS011;51982;51.042;13.806;2022-07-29T06:47:33;30.88;;;14.15;;
65377;SDS011;51982;51.042;13.806;2022-07-29T06:49:59;23.52;;;14.13;;
65377;SDS011;51982;51.042;13.806;2022-07-29T06:52:24;25.60;;;12.90;;
65377;SDS011;51982;51.042;13.806;2022-07-29T06:54:50;26.30;;;13.85;;
65377;SDS011;51982;51.042;13.806;2022-07-29T06:57:15;33.77;;;13.63;;
65377;SDS011;51982;51.042;13.806;2022-07-29T06:59:40;29.60;;;14.23;;
65377;SDS011;51982;51.042;13.806;2022-07-29T07:02:06;32.33;;;13.98;;
65377;SDS011;51982;51.042;13.806;2022-07-29T07:04:31;24.70;;;14.30;;
65377;SDS011;51982;51.042;13.806;2022-07-29T07:06:56;28.05;;;13.57;;
65377;SDS011;51982;51.042;13.806;2022-07-29T07:09:22;31.25;;;14.52;;
65377;SDS011;51982;51.042;13.806;2022-07-29T07:11:47;27.70;;;13.30;;
65377;SDS011;51982;51.042;13.806;2022-07-29T07:14:13;28.65;;;13.30;;
65377;SDS011;51982;51.042;13.806;2022-07-29T07:16:38;20.45;;;12.52;;
65377;SDS011;51982;51.042;13.806;2022-07-29T07:19:03;22.83;;;13.00;;
65377;SDS011;51982;51.042;13.806;2022-07-29T07:21:29;22.52;;;12.45;;
65377;SDS011;51982;51.042;13.806;2022-07-29T07:23:54;34.42;;;12.25;;
65377;SDS011;51982;51.042;13.806;2022-07-29T07:26:19;26.45;;;11.73;;
65377;SDS011;51982;51.042;13.806;2022-07-29T07:28:45;21.75;;;11.60;;
65377;SDS011;51982;51.042;13.806;2022-07-29T07:31:10;27.52;;;12.15;;
65377;SDS011;51982;51.042;13.806;2022-07-29T07:33:36;31.17;;;11.43;;
65377;SDS011;51982;51.042;13.806;2022-07-29T07:36:04;24.60;;;11.75;;
65377;SDS011;51982;51.042;13.806;2022-07-29T07:38:29;30.50;;;11.93;;
65377;SDS011;51982;51.042;13.806;2022-07-29T07:40:55;21.23;;;11.23;;
65377;SDS011;51982;51.042;13.806;2022-07-29T07:43:20;21.47;;;11.13;;
65377;SDS011;51982;51.042;13.806;2022-07-29T07:45:46;30.55;;;11.73;;
65377;SDS011;51982;51.042;13.806;2022-07-29T07:48:11;26.77;;;10.43;;
65377;SDS011;51982;51.042;13.806;2022-07-29T07:50:37;27.37;;;10.87;;
65377;SDS011;51982;51.042;13.806;2022-07-29T07:53:02;28.45;;;10.98;;
65377;SDS011;51982;51.042;13.806;2022-07-29T07:55:27;26.20;;;10.93;;
65377;SDS011;51982;51.042;13.806;2022-07-29T07:57:53;23.77;;;11.00;;
65377;SDS011;51982;51.042;13.806;2022-07-29T08:00:19;20.02;;;10.82;;
65377;SDS011;51982;51.042;13.806;2022-07-29T08:02:46;18.05;;;10.70;;
65377;SDS011;51982;51.042;13.806;2022-07-29T08:05:11;21.83;;;11.50;;
65377;SDS011;51982;51.042;13.806;2022-07-29T08:07:40;28.80;;;10.40;;
65377;SDS011;51982;51.042;13.806;2022-07-29T08:10:06;23.23;;;10.50;;
65377;SDS011;51982;51.042;13.806;2022-07-29T08:12:32;20.42;;;9.50;;
65377;SDS011;51982;51.042;13.806;2022-07-29T08:14:57;25.53;;;9.60;;
65377;SDS011;51982;51.042;13.806;2022-07-29T08:17:22;20.83;;;9.37;;
65377;SDS011;51982;51.042;13.806;2022-07-29T08:19:48;23.25;;;9.20;;
65377;SDS011;51982;51.042;13.806;2022-07-29T08:22:13;25.20;;;9.17;;
65377;SDS011;51982;51.042;13.806;2022-07-29T08:24:39;17.83;;;8.95;;
65377;SDS011;51982;51.042;13.806;2022-07-29T08:27:33;20.02;;;7.97;;
65377;SDS011;51982;51.042;13.806;2022-07-29T08:29:58;29.17;;;8.03;;
65377;SDS011;51982;51.042;13.806;2022-07-29T08:32:23;21.73;;;8.13;;
65377;SDS011;51982;51.042;13.806;2022-07-29T08:34:49;17.17;;;7.35;;
65377;SDS011;51982;51.042;13.806;2022-07-29T08:37:14;15.50;;;7.20;;
65377;SDS011;51982;51.042;13.806;2022-07-29T08:39:39;20.67;;;7.90;;
65377;SDS011;51982;51.042;13.806;2022-07-29T08:42:05;18.50;;;6.95;;
65377;SDS011;51982;51.042;13.806;2022-07-29T08:44:31;21.48;;;7.90;;
65377;SDS011;51982;51.042;13.806;2022-07-29T08:46:56;19.70;;;7.05;;
65377;SDS011;51982;51.042;13.806;2022-07-29T08:49:21;28.30;;;8.15;;
65377;SDS011;51982;51.042;13.806;2022-07-29T08:51:47;21.17;;;7.30;;
65377;SDS011;51982;51.042;13.806;2022-07-29T08:54:12;16.92;;;7.40;;
65377;SDS011;51982;51.042;13.806;2022-07-29T08:56:42;18.38;;;7.75;;
65377;SDS011;51982;51.042;13.806;2022-07-29T08:59:07;21.15;;;7.57;;
65377;SDS011;51982;51.042;13.806;2022-07-29T09:01:34;15.38;;;7.07;;
65377;SDS011;51982;51.042;13.806;2022-07-29T09:04:02;16.38;;;7.95;;
65377;SDS011;51982;51.042;13.806;2022-07-29T09:06:31;17.23;;;7.38;;
65377;SDS011;51982;51.042;13.806;2022-07-29T09:08:58;16.83;;;7.68;;
65377;SDS011;51982;51.042;13.806;2022-07-29T09:11:24;18.73;;;7.60;;
65377;SDS011;51982;51.042;13.806;2022-07-29T09:13:50;17.13;;;7.85;;
65377;SDS011;51982;51.042;13.806;2022-07-29T09:16:15;16.60;;;7.60;;
65377;SDS011;51982;51.042;13.806;2022-07-29T09:18:41;18.10;;;7.75;;
65377;SDS011;51982;51.042;13.806;2022-07-29T09:21:12;18.08;;;7.70;;
65377;SDS011;51982;51.042;13.806;2022-07-29T09:26:30;15.45;;;7.38;;
65377;SDS011;51982;51.042;13.806;2022-07-29T09:28:56;14.10;;;7.20;;
65377;SDS011;51982;51.042;13.806;2022-07-29T09:31:27;17.65;;;7.00;;
65377;SDS011;51982;51.042;13.806;2022-07-29T09:33:58;16.00;;;8.00;;
65377;SDS011;51982;51.042;13.806;2022-07-29T09:36:25;15.32;;;7.63;;
65377;SDS011;51982;51.042;13.806;2022-07-29T09:38:57;16.23;;;7.60;;
65377;SDS011;51982;51.042;13.806;2022-07-29T09:41:26;20.02;;;7.95;;
65377;SDS011;51982;51.042;13.806;2022-07-29T09:43:53;16.63;;;8.10;;
65377;SDS011;51982;51.042;13.806;2022-07-29T09:46:21;11.15;;;6.78;;
65377;SDS011;51982;51.042;13.806;2022-07-29T09:49:05;18.67;;;7.80;;
65377;SDS011;51982;51.042;13.806;2022-07-29T09:51:31;14.40;;;7.03;;
65377;SDS011;51982;51.042;13.806;2022-07-29T09:53:56;17.57;;;9.20;;
65377;SDS011;51982;51.042;13.806;2022-07-29T09:56:38;18.80;;;8.77;;
65377;SDS011;51982;51.042;13.806;2022-07-29T09:59:07;18.77;;;8.88;;
65377;SDS011;51982;51.042;13.806;2022-07-29T10:01:34;21.05;;;8.30;;
65377;SDS011;51982;51.042;13.806;2022-07-29T10:04:00;15.52;;;8.27;;
65377;SDS011;51982;51.042;13.806;2022-07-29T10:06:27;14.57;;;7.97;;
65377;SDS011;51982;51.042;13.806;2022-07-29T10:08:52;13.83;;;7.80;;
65377;SDS011;51982;51.042;13.806;2022-07-29T10:11:18;12.48;;;6.60;;
65377;SDS011;51982;51.042;13.806;2022-07-29T10:13:46;13.35;;;6.25;;
65377;SDS011;51982;51.042;13.806;2022-07-29T10:16:12;10.93;;;5.47;;
65377;SDS011;51982;51.042;13.806;2022-07-29T10:18:39;13.60;;;6.10;;
65377;SDS011;51982;51.042;13.806;2022-07-29T10:21:05;9.63;;;5.10;;
65377;SDS011;51982;51.042;13.806;2022-07-29T10:23:31;8.13;;;4.70;;
65377;SDS011;51982;51.042;13.806;2022-07-29T10:25:57;10.82;;;4.72;;
65377;SDS011;51982;51.042;13.806;2022-07-29T10:28:22;12.82;;;4.65;;
65377;SDS011;51982;51.042;13.806;2022-07-29T10:30:49;8.85;;;4.60;;
65377;SDS011;51982;51.042;13.806;2022-07-29T10:33:28;5.57;;;3.78;;
65377;SDS011;51982;51.042;13.806;2022-07-29T10:36:21;7.40;;;4.10;;
65377;SDS011;51982;51.042;13.806;2022-07-29T10:41:53;5.07;;;2.28;;
65377;SDS011;51982;51.042;13.806;2022-07-29T10:44:26;3.58;;;1.90;;
65377;SDS011;51982;51.042;13.806;2022-07-29T10:46:52;3.95;;;2.10;;
65377;SDS011;51982;51.042;13.806;2022-07-29T10:49:21;5.15;;;2.10;;
65377;SDS011;51982;51.042;13.806;2022-07-29T10:54:17;7.18;;;2.28;;
65377;SDS011;51982;51.042;13.806;2022-07-29T10:56:44;5.03;;;1.83;;
65377;SDS011;51982;51.042;13.806;2022-07-29T11:01:44;4.22;;;1.85;;
65377;SDS011;51982;51.042;13.806;2022-07-29T11:04:09;3.90;;;1.83;;
65377;SDS011;51982;51.042;13.806;2022-07-29T11:09:32;2.40;;;1.55;;
65377;SDS011;51982;51.042;13.806;2022-07-29T11:11:58;5.22;;;1.90;;
65377;SDS011;51982;51.042;13.806;2022-07-29T11:17:16;11.60;;;1.90;;
65377;SDS011;51982;51.042;13.806;2022-07-29T11:19:42;2.40;;;1.52;;
65377;SDS011;51982;51.042;13.806;2022-07-29T11:22:08;5.03;;;1.75;;
65377;SDS011;51982;51.042;13.806;2022-07-29T11:24:34;3.28;;;1.60;;
65377;SDS011;51982;51.042;13.806;2022-07-29T11:29:31;1.98;;;1.60;;
65377;SDS011;51982;51.042;13.806;2022-07-29T11:32:08;2.78;;;1.80;;
65377;SDS011;51982;51.042;13.806;2022-07-29T11:34:35;4.80;;;2.10;;
65377;SDS011;51982;51.042;13.806;2022-07-29T11:39:34;4.90;;;2.47;;
65377;SDS011;51982;51.042;13.806;2022-07-29T11:45:00;5.13;;;1.80;;
65377;SDS011;51982;51.042;13.806;2022-07-29T11:47:36;7.60;;;2.40;;
65377;SDS011;51982;51.042;13.806;2022-07-29T11:50:03;3.00;;;2.15;;
65377;SDS011;51982;51.042;13.806;2022-07-29T11:52:34;10.93;;;2.75;;
65377;SDS011;51982;51.042;13.806;2022-07-29T11:55:03;10.30;;;2.80;;
65377;SDS011;51982;51.042;13.806;2022-07-29T11:57:30;7.47;;;2.75;;
65377;SDS011;51982;51.042;13.806;2022-07-29T11:59:56;5.68;;;2.55;;
65377;SDS011;51982;51.042;13.806;2022-07-29T12:02:22;6.88;;;2.42;;
65377;SDS011;51982;51.042;13.806;2022-07-29T12:04:50;7.70;;;2.73;;
65377;SDS011;51982;51.042;13.806;2022-07-29T12:07:18;7.28;;;2.45;;
65377;SDS011;51982;51.042;13.806;2022-07-29T12:09:51;12.70;;;2.60;;
65377;SDS011;51982;51.042;13.806;2022-07-29T12:12:18;4.68;;;2.20;;
65377;SDS011;51982;51.042;13.806;2022-07-29T12:14:44;4.78;;;2.25;;
65377;SDS011;51982;51.042;13.806;2022-07-29T12:17:25;4.38;;;2.08;;
65377;SDS011;51982;51.042;13.806;2022-07-29T12:19:54;5.95;;;2.40;;
65377;SDS011;51982;51.042;13.806;2022-07-29T12:22:27;6.65;;;2.50;;
65377;SDS011;51982;51.042;13.806;2022-07-29T12:24:54;5.70;;;2.30;;
65377;SDS011;51982;51.042;13.806;2022-07-29T12:27:20;4.75;;;2.38;;
65377;SDS011;51982;51.042;13.806;2022-07-29T12:29:55;4.60;;;2.40;;
65377;SDS011;51982;51.042;13.806;2022-07-29T12:32:30;4.65;;;2.58;;
65377;SDS011;51982;51.042;13.806;2022-07-29T12:34:56;3.20;;;2.13;;
65377;SDS011;51982;51.042;13.806;2022-07-29T12:37:22;5.65;;;2.17;;
65377;SDS011;51982;51.042;13.806;2022-07-29T12:39:47;4.55;;;2.20;;
65377;SDS011;51982;51.042;13.806;2022-07-29T12:42:14;6.18;;;2.40;;
65377;SDS011;51982;51.042;13.806;2022-07-29T12:44:44;3.15;;;1.77;;
65377;SDS011;51982;51.042;13.806;2022-07-29T12:47:11;4.53;;;2.08;;
65377;SDS011;51982;51.042;13.806;2022-07-29T12:49:36;6.72;;;2.20;;
65377;SDS011;51982;51.042;13.806;2022-07-29T12:52:22;3.47;;;2.10;;
65377;SDS011;51982;51.042;13.806;2022-07-29T12:54:57;4.05;;;2.20;;
65377;SDS011;51982;51.042;13.806;2022-07-29T12:57:23;4.57;;;2.25;;
65377;SDS011;51982;51.042;13.806;2022-07-29T13:00:05;3.53;;;2.10;;
65377;SDS011;51982;51.042;13.806;2022-07-29T13:02:36;2.88;;;2.05;;
65377;SDS011;51982;51.042;13.806;2022-07-29T13:05:02;3.42;;;2.10;;
65377;SDS011;51982;51.042;13.806;2022-07-29T13:07:29;3.13;;;2.05;;
65377;SDS011;51982;51.042;13.806;2022-07-29T13:10:10;4.15;;;2.20;;
65377;SDS011;51982;51.042;13.806;2022-07-29T13:13:02;4.10;;;2.00;;
65377;SDS011;51982;51.042;13.806;2022-07-29T13:15:29;5.80;;;2.38;;
65377;SDS011;51982;51.042;13.806;2022-07-29T13:17:54;4.07;;;2.03;;
65377;SDS011;51982;51.042;13.806;2022-07-29T13:20:23;7.47;;;2.25;;
65377;SDS011;51982;51.042;13.806;2022-07-29T13:22:49;4.65;;;2.22;;
65377;SDS011;51982;51.042;13.806;2022-07-29T13:25:15;7.07;;;2.15;;
65377;SDS011;51982;51.042;13.806;2022-07-29T13:27:49;4.72;;;2.10;;
65377;SDS011;51982;51.042;13.806;2022-07-29T13:30:14;7.60;;;2.05;;
65377;SDS011;51982;51.042;13.806;2022-07-29T13:32:43;8.98;;;2.20;;
65377;SDS011;51982;51.042;13.806;2022-07-29T13:35:08;3.57;;;2.00;;
65377;SDS011;51982;51.042;13.806;2022-07-29T13:37:34;5.00;;;1.75;;
65377;SDS011;51982;51.042;13.806;2022-07-29T13:40:03;5.38;;;1.80;;
65377;SDS011;51982;51.042;13.806;2022-07-29T13:42:29;6.97;;;2.17;;
65377;SDS011;51982;51.042;13.806;2022-07-29T13:44:54;5.57;;;2.15;;
65377;SDS011;51982;51.042;13.806;2022-07-29T13:47:20;4.18;;;1.98;;
65377;SDS011;51982;51.042;13.806;2022-07-29T13:49:45;6.32;;;2.30;;
65377;SDS011;51982;51.042;13.806;2022-07-29T13:52:11;4.88;;;2.20;;
65377;SDS011;51982;51.042;13.806;2022-07-29T13:54:36;2.30;;;1.80;;
65377;SDS011;51982;51.042;13.806;2022-07-29T13:57:03;8.93;;;2.33;;
65377;SDS011;51982;51.042;13.806;2022-07-29T13:59:29;4.18;;;2.17;;
65377;SDS011;51982;51.042;13.806;2022-07-29T14:01:54;4.35;;;2.03;;
65377;SDS011;51982;51.042;13.806;2022-07-29T14:04:19;4.90;;;2.20;;
65377;SDS011;51982;51.042;13.806;2022-07-29T14:06:46;5.00;;;2.30;;
65377;SDS011;51982;51.042;13.806;2022-07-29T14:09:11;5.32;;;2.20;;
65377;SDS011;51982;51.042;13.806;2022-07-29T14:11:36;4.97;;;2.20;;
65377;SDS011;51982;51.042;13.806;2022-07-29T14:14:03;5.20;;;2.10;;
65377;SDS011;51982;51.042;13.806;2022-07-29T14:16:28;2.50;;;2.10;;
65377;SDS011;51982;51.042;13.806;2022-07-29T14:18:54;3.88;;;2.45;;
65377;SDS011;51982;51.042;13.806;2022-07-29T14:21:19;3.60;;;2.13;;
65377;SDS011;51982;51.042;13.806;2022-07-29T14:23:44;4.90;;;2.10;;
65377;SDS011;51982;51.042;13.806;2022-07-29T14:26:09;3.70;;;2.25;;
65377;SDS011;51982;51.042;13.806;2022-07-29T14:28:35;3.73;;;2.33;;
65377;SDS011;51982;51.042;13.806;2022-07-29T14:31:00;4.00;;;2.33;;
65377;SDS011;51982;51.042;13.806;2022-07-29T14:33:25;3.53;;;2.25;;
65377;SDS011;51982;51.042;13.806;2022-07-29T14:35:50;8.47;;;2.53;;
65377;SDS011;51982;51.042;13.806;2022-07-29T14:38:16;11.10;;;2.43;;
65377;SDS011;51982;51.042;13.806;2022-07-29T14:40:41;10.43;;;2.30;;
65377;SDS011;51982;51.042;13.806;2022-07-29T14:43:06;4.63;;;2.30;;
65377;SDS011;51982;51.042;13.806;2022-07-29T14:45:31;8.63;;;2.53;;
65377;SDS011;51982;51.042;13.806;2022-07-29T14:47:57;5.57;;;2.60;;
65377;SDS011;51982;51.042;13.806;2022-07-29T14:50:22;3.10;;;2.75;;
65377;SDS011;51982;51.042;13.806;2022-07-29T14:52:47;8.05;;;2.78;;